sensor_id;sensor_type;location;lat;lon;timestamp;pressure;altitude;pressure_sealevel;temperature;humidity
29433;BME280;16405;53.964;13.448;2023-04-07T00:01:43;101774.38;;;0.32;86.87
29433;BME280;16405;53.964;13.448;2023-04-07T00:04:09;101778.69;;;0.28;86.67
29433;BME280;16405;53.964;13.448;2023-04-07T00:06:35;101774.25;;;0.21;86.65
29433;BME280;16405;53.964;13.448;2023-04-07T00:09:02;101775.00;;;0.12;86.68
29433;BME280;16405;53.964;13.448;2023-04-07T00:11:28;101772.25;;;0.02;86.31
29433;BME280;16405;53.964;13.448;2023-04-07T00:13:59;101783.38;;;-0.07;86.37
29433;BME280;16405;53.964;13.448;2023-04-07T00:16:25;101773.72;;;-0.17;86.53
29433;BME280;16405;53.964;13.448;2023-04-07T00:18:51;101780.56;;;-0.23;86.47
29433;BME280;16405;53.964;13.448;2023-04-07T00:21:16;101773.50;;;-0.33;86.30
29433;BME280;16405;53.964;13.448;2023-04-07T00:23:42;101768.22;;;-0.39;85.65
29433;BME280;16405;53.964;13.448;2023-04-07T00:26:10;101762.88;;;-0.51;85.80
29433;BME280;16405;53.964;13.448;2023-04-07T00:28:39;101769.63;;;-0.63;85.73
29433;BME280;16405;53.964;13.448;2023-04-07T00:31:04;101760.00;;;-0.71;85.26
29433;BME280;16405;53.964;13.448;2023-04-07T00:33:30;101760.75;;;-0.77;85.68
29433;BME280;16405;53.964;13.448;2023-04-07T00:35:56;101754.63;;;-0.82;85.86
29433;BME280;16405;53.964;13.448;2023-04-07T00:38:23;101756.22;;;-0.90;85.83
29433;BME280;16405;53.964;13.448;2023-04-07T00:40:57;101759.56;;;-0.96;86.04
29433;BME280;16405;53.964;13.448;2023-04-07T00:43:23;101756.94;;;-0.99;86.49
29433;BME280;16405;53.964;13.448;2023-04-07T00:45:51;101750.91;;;-0.98;87.00
29433;BME280;16405;53.964;13.448;2023-04-07T00:48:27;101746.59;;;-0.99;86.90
29433;BME280;16405;53.964;13.448;2023-04-07T00:50:53;101757.75;;;-1.00;87.47
29433;BME280;16405;53.964;13.448;2023-04-07T00:53:19;101750.00;;;-1.00;87.73
29433;BME280;16405;53.964;13.448;2023-04-07T00:55:47;101752.59;;;-1.00;88.54
29433;BME280;16405;53.964;13.448;2023-04-07T00:58:14;101750.03;;;-0.98;89.45
29433;BME280;16405;53.964;13.448;2023-04-07T01:01:04;101757.84;;;-0.97;90.00
29433;BME280;16405;53.964;13.448;2023-04-07T01:06:10;101752.63;;;-0.98;90.45
29433;BME280;16405;53.964;13.448;2023-04-07T01:09:01;101758.69;;;-0.96;91.00
29433;BME280;16405;53.964;13.448;2023-04-07T01:11:50;101750.88;;;-1.01;91.00
29433;BME280;16405;53.964;13.448;2023-04-07T01:14:19;101756.84;;;-1.04;91.22
29433;BME280;16405;53.964;13.448;2023-04-07T01:16:51;101756.78;;;-1.07;90.21
29433;BME280;16405;53.964;13.448;2023-04-07T01:19:46;101759.31;;;-1.10;90.05
29433;BME280;16405;53.964;13.448;2023-04-07T01:22:17;101749.69;;;-1.17;90.70
29433;BME280;16405;53.964;13.448;2023-04-07T01:27:58;101745.31;;;-1.21;90.55
29433;BME280;16405;53.964;13.448;2023-04-07T01:30:28;101741.78;;;-1.26;89.94
29433;BME280;16405;53.964;13.448;2023-04-07T01:32:58;101738.28;;;-1.30;89.97
29433;BME280;16405;53.964;13.448;2023-04-07T01:35:28;101737.34;;;-1.33;90.33
29433;BME280;16405;53.964;13.448;2023-04-07T01:37:56;101733.88;;;-1.35;90.03
29433;BME280;16405;53.964;13.448;2023-04-07T01:40:23;101727.84;;;-1.36;90.48
29433;BME280;16405;53.964;13.448;2023-04-07T01:42:50;101731.25;;;-1.37;90.46
29433;BME280;16405;53.964;13.448;2023-04-07T01:45:17;101729.50;;;-1.39;90.31
29433;BME280;16405;53.964;13.448;2023-04-07T01:47:47;101727.69;;;-1.43;90.52
29433;BME280;16405;53.964;13.448;2023-04-07T01:50:14;101728.53;;;-1.45;90.71
29433;BME280;16405;53.964;13.448;2023-04-07T01:52:41;101722.47;;;-1.47;90.69
29433;BME280;16405;53.964;13.448;2023-04-07T01:55:08;101724.16;;;-1.49;90.86
29433;BME280;16405;53.964;13.448;2023-04-07T01:57:34;101720.69;;;-1.49;90.79
29433;BME280;16405;53.964;13.448;2023-04-07T02:00:00;101715.38;;;-1.57;91.10
29433;BME280;16405;53.964;13.448;2023-04-07T02:02:27;101724.81;;;-1.59;91.21
29433;BME280;16405;53.964;13.448;2023-04-07T02:04:59;101722.19;;;-1.60;90.61
29433;BME280;16405;53.964;13.448;2023-04-07T02:10:06;101719.53;;;-1.65;90.83
29433;BME280;16405;53.964;13.448;2023-04-07T02:12:38;101716.94;;;-1.65;91.16
29433;BME280;16405;53.964;13.448;2023-04-07T02:15:08;101722.97;;;-1.66;90.73
29433;BME280;16405;53.964;13.448;2023-04-07T02:17:39;101723.84;;;-1.66;91.12
29433;BME280;16405;53.964;13.448;2023-04-07T02:20:08;101728.13;;;-1.65;91.07
29433;BME280;16405;53.964;13.448;2023-04-07T02:22:39;101717.81;;;-1.66;91.00
29433;BME280;16405;53.964;13.448;2023-04-07T02:25:28;101719.47;;;-1.68;90.79
29433;BME280;16405;53.964;13.448;2023-04-07T02:27:56;101724.56;;;-1.73;91.08
29433;BME280;16405;53.964;13.448;2023-04-07T02:30:23;101721.81;;;-1.80;90.96
29433;BME280;16405;53.964;13.448;2023-04-07T02:32:49;101721.75;;;-1.83;90.97
29433;BME280;16405;53.964;13.448;2023-04-07T02:35:15;101724.25;;;-1.87;91.15
29433;BME280;16405;53.964;13.448;2023-04-07T02:37:45;101724.19;;;-1.91;90.67
29433;BME280;16405;53.964;13.448;2023-04-07T02:40:12;101726.66;;;-1.96;90.71
29433;BME280;16405;53.964;13.448;2023-04-07T02:42:38;101723.22;;;-1.96;91.20
29433;BME280;16405;53.964;13.448;2023-04-07T02:45:05;101724.91;;;-1.98;90.43
29433;BME280;16405;53.964;13.448;2023-04-07T02:47:36;101728.31;;;-1.99;91.11
29433;BME280;16405;53.964;13.448;2023-04-07T02:50:02;101720.56;;;-1.99;90.39
29433;BME280;16405;53.964;13.448;2023-04-07T02:52:28;101722.28;;;-2.00;90.47
29433;BME280;16405;53.964;13.448;2023-04-07T02:54:54;101720.47;;;-2.04;90.17
29433;BME280;16405;53.964;13.448;2023-04-07T02:57:20;101716.06;;;-2.08;90.62
29433;BME280;16405;53.964;13.448;2023-04-07T02:59:46;101715.13;;;-2.13;90.59
29433;BME280;16405;53.964;13.448;2023-04-07T03:02:12;101711.59;;;-2.17;90.75
29433;BME280;16405;53.964;13.448;2023-04-07T03:04:38;101714.13;;;-2.18;90.77
29433;BME280;16405;53.964;13.448;2023-04-07T03:07:04;101708.16;;;-2.17;91.45
29433;BME280;16405;53.964;13.448;2023-04-07T03:09:30;101708.16;;;-2.17;91.33
29433;BME280;16405;53.964;13.448;2023-04-07T03:11:56;101712.44;;;-2.18;91.10
29433;BME280;16405;53.964;13.448;2023-04-07T03:14:22;101707.25;;;-2.19;90.98
29433;BME280;16405;53.964;13.448;2023-04-07T03:16:51;101706.38;;;-2.20;91.38
29433;BME280;16405;53.964;13.448;2023-04-07T03:19:16;101707.97;;;-2.27;91.02
29433;BME280;16405;53.964;13.448;2023-04-07T03:21:42;101702.66;;;-2.33;91.28
29433;BME280;16405;53.964;13.448;2023-04-07T03:24:08;101703.44;;;-2.37;91.03
29433;BME280;16405;53.964;13.448;2023-04-07T03:26:34;101703.28;;;-2.43;91.46
29433;BME280;16405;53.964;13.448;2023-04-07T03:29:00;101703.25;;;-2.44;91.26
29433;BME280;16405;53.964;13.448;2023-04-07T03:31:26;101698.91;;;-2.47;91.55
29433;BME280;16405;53.964;13.448;2023-04-07T03:33:52;101710.84;;;-2.51;91.29
29433;BME280;16405;53.964;13.448;2023-04-07T03:36:17;101713.31;;;-2.55;91.72
29433;BME280;16405;53.964;13.448;2023-04-07T03:38:45;101712.41;;;-2.57;92.08
29433;BME280;16405;53.964;13.448;2023-04-07T03:41:11;101701.13;;;-2.62;92.03
29433;BME280;16405;53.964;13.448;2023-04-07T03:43:37;101697.59;;;-2.67;91.95
29433;BME280;16405;53.964;13.448;2023-04-07T03:46:03;101700.00;;;-2.74;92.24
29433;BME280;16405;53.964;13.448;2023-04-07T03:48:29;101703.31;;;-2.79;92.30
29433;BME280;16405;53.964;13.448;2023-04-07T03:50:55;101696.34;;;-2.83;92.21
29433;BME280;16405;53.964;13.448;2023-04-07T03:53:20;101697.09;;;-2.88;92.04
29433;BME280;16405;53.964;13.448;2023-04-07T03:55:46;101697.91;;;-2.90;92.13
29433;BME280;16405;53.964;13.448;2023-04-07T03:58:12;101695.28;;;-2.92;92.44
29433;BME280;16405;53.964;13.448;2023-04-07T04:00:38;101698.75;;;-2.91;91.79
29433;BME280;16405;53.964;13.448;2023-04-07T04:03:04;101693.59;;;-2.91;91.83
29433;BME280;16405;53.964;13.448;2023-04-07T04:05:30;101700.47;;;-2.90;92.01
29433;BME280;16405;53.964;13.448;2023-04-07T04:07:56;101692.59;;;-2.96;91.87
29433;BME280;16405;53.964;13.448;2023-04-07T04:10:22;101700.38;;;-2.95;92.18
29433;BME280;16405;53.964;13.448;2023-04-07T04:12:48;101702.13;;;-2.94;91.86
29433;BME280;16405;53.964;13.448;2023-04-07T04:15:16;101702.91;;;-2.96;91.87
29433;BME280;16405;53.964;13.448;2023-04-07T04:17:42;101705.47;;;-2.98;91.69
29433;BME280;16405;53.964;13.448;2023-04-07T04:20:08;101708.84;;;-2.99;92.11
29433;BME280;16405;53.964;13.448;2023-04-07T04:22:34;101695.97;;;-2.99;92.24
29433;BME280;16405;53.964;13.448;2023-04-07T04:25:01;101699.41;;;-2.98;92.26
29433;BME280;16405;53.964;13.448;2023-04-07T04:27:27;101705.47;;;-2.98;91.79
29433;BME280;16405;53.964;13.448;2023-04-07T04:29:53;101705.53;;;-2.95;92.41
29433;BME280;16405;53.964;13.448;2023-04-07T04:32:19;101713.41;;;-2.89;92.18
29433;BME280;16405;53.964;13.448;2023-04-07T04:34:46;101705.81;;;-2.82;92.71
29433;BME280;16405;53.964;13.448;2023-04-07T04:37:12;101711.25;;;-2.72;92.47
29433;BME280;16405;53.964;13.448;2023-04-07T04:39:38;101710.59;;;-2.61;92.25
29433;BME280;16405;53.964;13.448;2023-04-07T04:42:04;101717.81;;;-2.48;92.08
29433;BME280;16405;53.964;13.448;2023-04-07T04:44:30;101715.47;;;-2.36;91.93
29433;BME280;16405;53.964;13.448;2023-04-07T04:46:56;101715.75;;;-2.23;92.12
29433;BME280;16405;53.964;13.448;2023-04-07T04:49:22;101718.63;;;-2.10;91.63
29433;BME280;16405;53.964;13.448;2023-04-07T04:51:48;101717.97;;;-1.99;91.13
29433;BME280;16405;53.964;13.448;2023-04-07T04:54:15;101716.53;;;-1.87;90.70
29433;BME280;16405;53.964;13.448;2023-04-07T04:56:41;101718.47;;;-1.76;90.75
29433;BME280;16405;53.964;13.448;2023-04-07T04:59:07;101713.47;;;-1.67;90.44
29433;BME280;16405;53.964;13.448;2023-04-07T05:01:33;101713.53;;;-1.62;90.58
29433;BME280;16405;53.964;13.448;2023-04-07T05:03:59;101713.84;;;-1.47;90.50
29433;BME280;16405;53.964;13.448;2023-04-07T05:06:25;101714.97;;;-1.33;90.13
29433;BME280;16405;53.964;13.448;2023-04-07T05:08:52;101720.38;;;-1.19;90.10
29433;BME280;16405;53.964;13.448;2023-04-07T05:11:18;101723.19;;;-1.07;90.03
29433;BME280;16405;53.964;13.448;2023-04-07T05:13:46;101727.00;;;-0.85;90.24
29433;BME280;16405;53.964;13.448;2023-04-07T05:16:12;101737.63;;;-0.66;90.39
29433;BME280;16405;53.964;13.448;2023-04-07T05:18:38;101732.06;;;-0.36;89.91
29433;BME280;16405;53.964;13.448;2023-04-07T05:21:04;101735.06;;;-0.05;88.53
29433;BME280;16405;53.964;13.448;2023-04-07T05:23:32;101741.06;;;0.64;87.67
29433;BME280;16405;53.964;13.448;2023-04-07T05:25:58;101745.59;;;2.00;86.09
29433;BME280;16405;53.964;13.448;2023-04-07T05:28:24;101751.03;;;2.63;83.07
29433;BME280;16405;53.964;13.448;2023-04-07T05:30:50;101748.19;;;2.01;81.69
29433;BME280;16405;53.964;13.448;2023-04-07T05:33:16;101747.97;;;1.60;81.39
29433;BME280;16405;53.964;13.448;2023-04-07T05:35:44;101742.56;;;1.32;82.21
29433;BME280;16405;53.964;13.448;2023-04-07T05:38:11;101735.50;;;1.13;83.05
29433;BME280;16405;53.964;13.448;2023-04-07T05:40:38;101738.84;;;0.99;83.57
29433;BME280;16405;53.964;13.448;2023-04-07T05:43:04;101742.16;;;0.88;84.35
29433;BME280;16405;53.964;13.448;2023-04-07T05:45:30;101742.97;;;0.80;85.33
29433;BME280;16405;53.964;13.448;2023-04-07T05:47:56;101741.22;;;0.79;85.96
29433;BME280;16405;53.964;13.448;2023-04-07T05:50:22;101740.34;;;0.79;86.71
29433;BME280;16405;53.964;13.448;2023-04-07T05:52:47;101746.44;;;0.84;87.28
29433;BME280;16405;53.964;13.448;2023-04-07T05:55:13;101748.25;;;0.91;87.77
29433;BME280;16405;53.964;13.448;2023-04-07T05:57:39;101743.06;;;0.93;88.91
29433;BME280;16405;53.964;13.448;2023-04-07T06:00:07;101745.75;;;1.00;90.55
29433;BME280;16405;53.964;13.448;2023-04-07T06:02:33;101744.09;;;1.09;90.88
29433;BME280;16405;53.964;13.448;2023-04-07T06:04:58;101744.16;;;1.15;91.06
29433;BME280;16405;53.964;13.448;2023-04-07T06:07:24;101740.75;;;1.22;91.72
29433;BME280;16405;53.964;13.448;2023-04-07T06:09:50;101746.88;;;1.30;91.83
29433;BME280;16405;53.964;13.448;2023-04-07T06:12:16;101750.41;;;1.41;91.74
29433;BME280;16405;53.964;13.448;2023-04-07T06:14:45;101747.88;;;1.48;92.22
29433;BME280;16405;53.964;13.448;2023-04-07T06:17:11;101746.22;;;1.62;92.35
29433;BME280;16405;53.964;13.448;2023-04-07T06:19:37;101752.34;;;1.72;92.54
29433;BME280;16405;53.964;13.448;2023-04-07T06:22:03;101751.44;;;1.68;93.41
29433;BME280;16405;53.964;13.448;2023-04-07T06:24:28;101751.53;;;1.83;93.54
29433;BME280;16405;53.964;13.448;2023-04-07T06:26:54;101755.97;;;2.03;93.07
29433;BME280;16405;53.964;13.448;2023-04-07T06:29:21;101758.66;;;2.15;92.60
29433;BME280;16405;53.964;13.448;2023-04-07T06:31:49;101756.09;;;2.23;92.84
29433;BME280;16405;53.964;13.448;2023-04-07T06:34:15;101763.06;;;2.35;92.81
29433;BME280;16405;53.964;13.448;2023-04-07T06:36:41;101764.81;;;2.40;93.10
29433;BME280;16405;53.964;13.448;2023-04-07T06:39:07;101770.06;;;2.50;93.11
29433;BME280;16405;53.964;13.448;2023-04-07T06:41:33;101764.88;;;2.56;93.27
29433;BME280;16405;53.964;13.448;2023-04-07T06:44:02;101751.00;;;2.54;93.44
29433;BME280;16405;53.964;13.448;2023-04-07T06:46:27;101755.34;;;2.65;93.76
29433;BME280;16405;53.964;13.448;2023-04-07T06:48:53;101759.72;;;2.80;93.68
29433;BME280;16405;53.964;13.448;2023-04-07T06:51:19;101761.47;;;2.83;93.74
29433;BME280;16405;53.964;13.448;2023-04-07T06:53:45;101758.06;;;3.02;93.40
29433;BME280;16405;53.964;13.448;2023-04-07T06:56:14;101758.91;;;3.01;92.99
29433;BME280;16405;53.964;13.448;2023-04-07T06:58:40;101758.88;;;3.04;93.12
29433;BME280;16405;53.964;13.448;2023-04-07T07:01:08;101755.44;;;3.07;93.26
29433;BME280;16405;53.964;13.448;2023-04-07T07:03:33;101754.56;;;3.08;93.24
29433;BME280;16405;53.964;13.448;2023-04-07T07:06:00;101766.72;;;3.06;93.07
29433;BME280;16405;53.964;13.448;2023-04-07T07:08:27;101771.06;;;3.01;93.13
29433;BME280;16405;53.964;13.448;2023-04-07T07:10:54;101763.25;;;3.16;93.21
29433;BME280;16405;53.964;13.448;2023-04-07T07:13:23;101765.84;;;3.07;93.64
29433;BME280;16405;53.964;13.448;2023-04-07T07:15:50;101766.75;;;3.20;93.40
29433;BME280;16405;53.964;13.448;2023-04-07T07:18:18;101766.75;;;3.24;93.40
29433;BME280;16405;53.964;13.448;2023-04-07T07:20:44;101766.72;;;3.26;93.21
29433;BME280;16405;53.964;13.448;2023-04-07T07:23:10;101767.59;;;3.31;93.09
29433;BME280;16405;53.964;13.448;2023-04-07T07:25:36;101772.78;;;3.34;92.81
29433;BME280;16405;53.964;13.448;2023-04-07T07:28:04;101766.75;;;3.35;92.80
29433;BME280;16405;53.964;13.448;2023-04-07T07:30:30;101765.88;;;3.38;93.28
29433;BME280;16405;53.964;13.448;2023-04-07T07:32:56;101765.00;;;3.46;92.85
29433;BME280;16405;53.964;13.448;2023-04-07T07:35:22;101771.06;;;3.52;93.22
29433;BME280;16405;53.964;13.448;2023-04-07T07:37:49;101771.06;;;3.58;92.79
29433;BME280;16405;53.964;13.448;2023-04-07T07:40:18;101769.34;;;3.63;93.04
29433;BME280;16405;53.964;13.448;2023-04-07T07:42:45;101778.84;;;3.76;92.87
29433;BME280;16405;53.964;13.448;2023-04-07T07:45:11;101781.47;;;3.76;93.00
29433;BME280;16405;53.964;13.448;2023-04-07T07:47:38;101780.56;;;3.85;93.00
29433;BME280;16405;53.964;13.448;2023-04-07T07:50:05;101784.03;;;3.84;93.20
29433;BME280;16405;53.964;13.448;2023-04-07T07:52:33;101778.84;;;3.85;92.79
29433;BME280;16405;53.964;13.448;2023-04-07T07:55:00;101787.53;;;3.83;92.82
29433;BME280;16405;53.964;13.448;2023-04-07T07:57:25;101788.38;;;3.77;93.32
29433;BME280;16405;53.964;13.448;2023-04-07T07:59:51;101789.25;;;3.84;93.60
29433;BME280;16405;53.964;13.448;2023-04-07T08:02:18;101790.13;;;3.74;93.69
29433;BME280;16405;53.964;13.448;2023-04-07T08:04:44;101796.22;;;3.73;94.15
29433;BME280;16405;53.964;13.448;2023-04-07T08:07:09;101789.25;;;3.73;94.62
29433;BME280;16405;53.964;13.448;2023-04-07T08:09:37;101780.56;;;3.76;94.94
29433;BME280;16405;53.964;13.448;2023-04-07T08:12:05;101788.41;;;3.69;95.46
29433;BME280;16405;53.964;13.448;2023-04-07T08:14:31;101781.47;;;3.76;95.82
29433;BME280;16405;53.964;13.448;2023-04-07T08:16:57;101787.53;;;3.77;96.18
29433;BME280;16405;53.964;13.448;2023-04-07T08:19:23;101782.31;;;3.70;96.39
29433;BME280;16405;53.964;13.448;2023-04-07T08:21:49;101791.00;;;3.91;96.30
29433;BME280;16405;53.964;13.448;2023-04-07T08:24:17;101789.25;;;3.92;96.31
29433;BME280;16405;53.964;13.448;2023-04-07T08:26:45;101779.66;;;4.01;96.08
29433;BME280;16405;53.964;13.448;2023-04-07T08:29:11;101794.44;;;4.02;96.08
29433;BME280;16405;53.964;13.448;2023-04-07T08:31:37;101785.72;;;4.03;95.91
29433;BME280;16405;53.964;13.448;2023-04-07T08:34:03;101788.31;;;4.09;95.72
29433;BME280;16405;53.964;13.448;2023-04-07T08:36:29;101790.09;;;3.97;95.65
29433;BME280;16405;53.964;13.448;2023-04-07T08:38:56;101789.22;;;4.07;96.16
29433;BME280;16405;53.964;13.448;2023-04-07T08:41:40;101788.31;;;4.08;96.26
29433;BME280;16405;53.964;13.448;2023-04-07T08:44:07;101791.81;;;4.07;96.34
29433;BME280;16405;53.964;13.448;2023-04-07T08:46:34;101791.81;;;4.01;96.49
29433;BME280;16405;53.964;13.448;2023-04-07T08:49:10;101797.88;;;4.12;96.48
29433;BME280;16405;53.964;13.448;2023-04-07T08:51:46;101797.91;;;3.98;96.52
29433;BME280;16405;53.964;13.448;2023-04-07T08:54:17;101805.72;;;4.03;97.04
29433;BME280;16405;53.964;13.448;2023-04-07T08:56:44;101798.75;;;4.03;97.65
29433;BME280;16405;53.964;13.448;2023-04-07T08:59:13;101800.50;;;4.07;98.11
29433;BME280;16405;53.964;13.448;2023-04-07T09:01:46;101801.41;;;3.91;98.20
29433;BME280;16405;53.964;13.448;2023-04-07T09:04:13;101792.69;;;4.01;98.32
29433;BME280;16405;53.964;13.448;2023-04-07T09:06:39;101799.63;;;3.99;98.68
29433;BME280;16405;53.964;13.448;2023-04-07T09:09:10;101803.97;;;4.05;98.60
29433;BME280;16405;53.964;13.448;2023-04-07T09:11:38;101810.97;;;3.94;98.94
29433;BME280;16405;53.964;13.448;2023-04-07T09:14:12;101803.16;;;3.80;99.64
29433;BME280;16405;53.964;13.448;2023-04-07T09:16:41;101807.50;;;3.82;100.00
29433;BME280;16405;53.964;13.448;2023-04-07T09:19:07;101803.19;;;3.72;100.00
29433;BME280;16405;53.964;13.448;2023-04-07T09:21:55;101799.69;;;3.73;100.00
29433;BME280;16405;53.964;13.448;2023-04-07T09:24:22;101797.09;;;3.82;100.00
29433;BME280;16405;53.964;13.448;2023-04-07T09:27:24;101804.03;;;3.89;100.00
29433;BME280;16405;53.964;13.448;2023-04-07T09:29:50;101808.38;;;3.89;100.00
29433;BME280;16405;53.964;13.448;2023-04-07T09:32:43;101800.53;;;3.84;100.00
29433;BME280;16405;53.964;13.448;2023-04-07T09:35:09;101799.66;;;3.95;100.00
29433;BME280;16405;53.964;13.448;2023-04-07T09:37:44;101804.00;;;3.99;100.00
29433;BME280;16405;53.964;13.448;2023-04-07T09:40:16;101800.50;;;4.07;100.00
29433;BME280;16405;53.964;13.448;2023-04-07T09:42:50;101790.09;;;4.03;100.00
29433;BME280;16405;53.964;13.448;2023-04-07T09:45:30;101808.31;;;4.09;100.00
29433;BME280;16405;53.964;13.448;2023-04-07T09:48:20;101800.50;;;4.03;100.00
29433;BME280;16405;53.964;13.448;2023-04-07T09:50:49;101797.91;;;4.00;100.00
29433;BME280;16405;53.964;13.448;2023-04-07T09:53:18;101804.00;;;3.96;100.00
29433;BME280;16405;53.964;13.448;2023-04-07T09:55:49;101799.66;;;3.92;100.00
29433;BME280;16405;53.964;13.448;2023-04-07T09:58:18;101804.88;;;3.92;100.00
29433;BME280;16405;53.964;13.448;2023-04-07T10:00:45;101796.22;;;3.80;100.00
29433;BME280;16405;53.964;13.448;2023-04-07T10:03:11;101798.81;;;3.85;100.00
29433;BME280;16405;53.964;13.448;2023-04-07T10:05:44;101801.41;;;3.82;100.00
29433;BME280;16405;53.964;13.448;2023-04-07T10:08:10;101809.25;;;3.68;100.00
29433;BME280;16405;53.964;13.448;2023-04-07T10:10:41;101805.78;;;3.66;100.00
29433;BME280;16405;53.964;13.448;2023-04-07T10:13:11;101804.03;;;3.65;100.00
29433;BME280;16405;53.964;13.448;2023-04-07T10:15:48;101801.41;;;3.65;100.00
29433;BME280;16405;53.964;13.448;2023-04-07T10:18:19;101808.38;;;3.55;100.00
29433;BME280;16405;53.964;13.448;2023-04-07T10:20:48;101813.59;;;3.64;100.00
29433;BME280;16405;53.964;13.448;2023-04-07T10:26:28;101812.72;;;3.64;100.00
29433;BME280;16405;53.964;13.448;2023-04-07T10:29:10;101811.84;;;3.71;100.00
29433;BME280;16405;53.964;13.448;2023-04-07T10:31:43;101816.22;;;3.63;100.00
29433;BME280;16405;53.964;13.448;2023-04-07T10:34:09;101820.56;;;3.55;100.00
29433;BME280;16405;53.964;13.448;2023-04-07T10:36:35;101816.22;;;3.57;100.00
29433;BME280;16405;53.964;13.448;2023-04-07T10:39:21;101817.94;;;3.55;100.00
29433;BME280;16405;53.964;13.448;2023-04-07T10:41:50;101817.06;;;3.62;100.00
29433;BME280;16405;53.964;13.448;2023-04-07T10:47:12;101814.47;;;3.63;100.00
29433;BME280;16405;53.964;13.448;2023-04-07T10:49:38;101807.50;;;3.70;100.00
29433;BME280;16405;53.964;13.448;2023-04-07T10:54:48;101804.91;;;3.73;100.00
29433;BME280;16405;53.964;13.448;2023-04-07T10:57:32;101812.72;;;3.73;100.00
29433;BME280;16405;53.964;13.448;2023-04-07T11:02:39;101812.72;;;3.93;100.00
29433;BME280;16405;53.964;13.448;2023-04-07T11:05:06;101806.63;;;3.96;100.00
29433;BME280;16405;53.964;13.448;2023-04-07T11:07:52;101803.16;;;3.81;100.00
29433;BME280;16405;53.964;13.448;2023-04-07T11:10:20;101806.63;;;3.79;100.00
29433;BME280;16405;53.964;13.448;2023-04-07T11:13:01;101801.41;;;3.76;100.00
29433;BME280;16405;53.964;13.448;2023-04-07T11:15:27;101811.00;;;3.78;100.00
29433;BME280;16405;53.964;13.448;2023-04-07T11:18:18;101810.13;;;3.65;100.00
29433;BME280;16405;53.964;13.448;2023-04-07T11:20:55;101805.75;;;3.69;100.00
29433;BME280;16405;53.964;13.448;2023-04-07T11:23:24;101804.91;;;3.72;100.00
29433;BME280;16405;53.964;13.448;2023-04-07T11:25:59;101804.06;;;3.69;100.00
29433;BME280;16405;53.964;13.448;2023-04-07T11:28:29;101804.03;;;3.74;100.00
29433;BME280;16405;53.964;13.448;2023-04-07T11:30:56;101806.66;;;3.80;100.00
29433;BME280;16405;53.964;13.448;2023-04-07T11:33:27;101800.53;;;3.74;100.00
29433;BME280;16405;53.964;13.448;2023-04-07T11:35:58;101802.28;;;3.81;100.00
29433;BME280;16405;53.964;13.448;2023-04-07T11:38:37;101797.09;;;3.81;100.00
29433;BME280;16405;53.964;13.448;2023-04-07T11:41:13;101797.06;;;3.88;100.00
29433;BME280;16405;53.964;13.448;2023-04-07T11:43:41;101798.78;;;3.86;100.00
29433;BME280;16405;53.964;13.448;2023-04-07T11:46:17;101795.31;;;3.92;100.00
29433;BME280;16405;53.964;13.448;2023-04-07T11:48:44;101792.72;;;4.00;100.00
29433;BME280;16405;53.964;13.448;2023-04-07T11:51:16;101785.75;;;3.94;100.00
29433;BME280;16405;53.964;13.448;2023-04-07T11:53:45;101780.53;;;4.00;100.00
29433;BME280;16405;53.964;13.448;2023-04-07T11:56:14;101785.81;;;3.80;100.00
29433;BME280;16405;53.964;13.448;2023-04-07T11:58:52;101777.94;;;3.93;100.00
29433;BME280;16405;53.964;13.448;2023-04-07T12:01:19;101772.72;;;4.02;100.00
29433;BME280;16405;53.964;13.448;2023-04-07T12:03:57;101770.94;;;4.18;100.00
29433;BME280;16405;53.964;13.448;2023-04-07T12:06:34;101778.66;;;4.36;100.00
29433;BME280;16405;53.964;13.448;2023-04-07T12:09:04;101776.00;;;4.48;100.00
29433;BME280;16405;53.964;13.448;2023-04-07T12:11:31;101779.50;;;4.54;100.00
29433;BME280;16405;53.964;13.448;2023-04-07T12:14:13;101784.72;;;4.54;100.00
29433;BME280;16405;53.964;13.448;2023-04-07T12:16:42;101769.00;;;4.61;100.00
29433;BME280;16405;53.964;13.448;2023-04-07T12:19:07;101771.63;;;4.55;100.00
29433;BME280;16405;53.964;13.448;2023-04-07T12:21:33;101785.53;;;4.57;100.00
29433;BME280;16405;53.964;13.448;2023-04-07T12:23:59;101774.28;;;4.50;100.00
29433;BME280;16405;53.964;13.448;2023-04-07T12:26:25;101782.97;;;4.49;100.00
29433;BME280;16405;53.964;13.448;2023-04-07T12:28:50;101773.31;;;4.64;100.00
29433;BME280;16405;53.964;13.448;2023-04-07T12:31:16;101773.34;;;4.67;100.00
29433;BME280;16405;53.964;13.448;2023-04-07T12:33:42;101778.63;;;4.51;100.00
29433;BME280;16405;53.964;13.448;2023-04-07T12:36:10;101781.94;;;4.81;100.00
29433;BME280;16405;53.964;13.448;2023-04-07T12:38:36;101777.63;;;4.72;100.00
29433;BME280;16405;53.964;13.448;2023-04-07T12:41:02;101778.56;;;4.58;100.00
29433;BME280;16405;53.964;13.448;2023-04-07T12:43:31;101777.75;;;4.48;100.00
29433;BME280;16405;53.964;13.448;2023-04-07T12:45:57;101778.63;;;4.47;100.00
29433;BME280;16405;53.964;13.448;2023-04-07T12:48:30;101776.88;;;4.54;100.00
29433;BME280;16405;53.964;13.448;2023-04-07T12:50:57;101780.34;;;4.52;100.00
29433;BME280;16405;53.964;13.448;2023-04-07T12:53:23;101779.50;;;4.47;100.00
29433;BME280;16405;53.964;13.448;2023-04-07T12:55:53;101782.91;;;4.62;100.00
29433;BME280;16405;53.964;13.448;2023-04-07T12:58:19;101780.25;;;4.66;100.00
29433;BME280;16405;53.964;13.448;2023-04-07T13:00:45;101788.03;;;4.82;100.00
29433;BME280;16405;53.964;13.448;2023-04-07T13:03:14;101773.38;;;4.56;100.00
29433;BME280;16405;53.964;13.448;2023-04-07T13:05:39;101780.31;;;4.56;100.00
29433;BME280;16405;53.964;13.448;2023-04-07T13:08:13;101775.09;;;4.57;100.00
29433;BME280;16405;53.964;13.448;2023-04-07T13:10:38;101773.44;;;4.42;100.00